Adak, Alaska
Current Conditions -  °F | °C
As of 12:36 PM on Tuesday 21 Oct 2014 (Local Time) from PADK Reporting Station
Overcast Overcast  
Wind Chill:   Ceiling: 3500
Heat Index:   Visibility: 10mi
Dew Point:   Wind: 7mph
Humidity: 61%   Direction: 270°W
Pressure: 30.17"   Gusts: 18mph
Location:  51.88°N, 176.66°W
Report Text: PADK 212136Z AUTO 27006G16KT 10SM BKN035 OVC044 07/00 A3017 RMK AO1
Loading
Personal Weather Stations






























Interactive Weather Map New forecast layout! Learn more

10-Day Weather Forecast

Advertisements
Track Severe Weather on mobile